createdAt,value
2018-07-02T00:00:38.013Z,17.31
2018-07-02T00:01:46.874Z,17.3
2018-07-02T00:02:56.193Z,17.25
2018-07-02T00:04:05.056Z,17.31
2018-07-02T00:05:13.917Z,17.16
2018-07-02T00:06:22.850Z,17.19
2018-07-02T00:07:31.730Z,17.18
2018-07-02T00:08:40.744Z,17.16
2018-07-02T00:09:49.607Z,17.19
2018-07-02T00:10:58.777Z,17.12
2018-07-02T00:12:07.641Z,17.14
2018-07-02T00:13:16.502Z,17.06
2018-07-02T00:14:25.420Z,17.12
2018-07-02T00:15:34.286Z,17.07
2018-07-02T00:16:43.149Z,17.08
2018-07-02T00:17:52.008Z,17
2018-07-02T00:19:00.869Z,16.91
2018-07-02T00:20:10.086Z,17
2018-07-02T00:21:18.945Z,16.94
2018-07-02T00:22:27.808Z,16.96
2018-07-02T00:23:36.670Z,16.96
2018-07-02T00:24:45.531Z,16.94
2018-07-02T00:25:54.986Z,16.86
2018-07-02T00:27:03.818Z,16.81
2018-07-02T00:28:12.677Z,16.81
2018-07-02T00:29:21.538Z,16.81
2018-07-02T00:30:30.404Z,16.79
2018-07-02T00:31:39.323Z,16.76
2018-07-02T00:32:48.563Z,16.76
2018-07-02T00:33:58.329Z,16.73
2018-07-02T00:35:08.664Z,16.71
2018-07-02T00:36:17.524Z,16.73
2018-07-02T00:37:26.639Z,16.73
2018-07-02T00:38:35.496Z,16.68
2018-07-02T00:39:44.358Z,16.66
2018-07-02T00:40:53.527Z,16.64
2018-07-02T00:42:02.385Z,16.63
2018-07-02T00:43:11.304Z,16.56
2018-07-02T00:44:20.167Z,16.58
2018-07-02T00:45:29.029Z,16.58
2018-07-02T00:46:37.893Z,16.57
2018-07-02T00:47:47.364Z,16.43
2018-07-02T00:48:57.423Z,16.46
2018-07-02T00:50:06.579Z,16.49
2018-07-02T00:51:15.767Z,16.5
2018-07-02T00:52:24.630Z,16.49
2018-07-02T00:53:33.488Z,16.49
2018-07-02T00:54:42.500Z,16.38
2018-07-02T00:55:51.359Z,16.41
2018-07-02T00:57:00.220Z,16.35
2018-07-02T00:58:09.716Z,16.33
2018-07-02T00:59:18.577Z,16.34
2018-07-02T01:00:27.491Z,16.25
2018-07-02T01:01:37.766Z,16.24
2018-07-02T01:02:46.630Z,16.24
2018-07-02T01:03:55.493Z,16.2
2018-07-02T01:05:04.658Z,16.17
2018-07-02T01:06:13.668Z,16.15
2018-07-02T01:07:22.530Z,16.15
2018-07-02T01:08:31.394Z,16.17
2018-07-02T01:09:40.552Z,16.08
2018-07-02T01:10:49.743Z,16.05
2018-07-02T01:11:58.808Z,16.04
2018-07-02T01:13:08.400Z,16.04
2018-07-02T01:14:17.974Z,16.02
2018-07-02T01:15:26.838Z,16.01
2018-07-02T01:16:36.025Z,16.01
2018-07-02T01:17:45.193Z,15.94
2018-07-02T01:18:54.058Z,15.97
2018-07-02T01:20:02.919Z,15.92
2018-07-02T01:21:11.779Z,15.97
2018-07-02T01:22:20.639Z,16.02
2018-07-02T01:23:29.750Z,15.97
2018-07-02T01:24:38.612Z,15.87
2018-07-02T01:25:47.475Z,15.83
2018-07-02T01:26:56.337Z,15.87
2018-07-02T01:28:05.197Z,15.87
2018-07-02T01:29:14.062Z,15.89
2018-07-02T01:30:22.920Z,15.92
2018-07-02T01:31:32.097Z,15.92
2018-07-02T01:32:41.577Z,15.78
2018-07-02T01:33:50.438Z,15.87
2018-07-02T01:34:59.348Z,15.78
2018-07-02T01:36:08.215Z,15.83
2018-07-02T01:37:17.073Z,15.82
2018-07-02T01:38:25.933Z,15.74
2018-07-02T01:39:35.422Z,15.74
2018-07-02T01:40:44.010Z,15.68
2018-07-02T01:41:52.869Z,15.75
2018-07-02T01:43:01.733Z,15.82
2018-07-02T01:44:10.591Z,15.69
2018-07-02T01:45:19.763Z,15.68
2018-07-02T01:46:29.739Z,15.67
2018-07-02T01:47:38.597Z,15.62
2018-07-02T01:48:47.458Z,15.65
2018-07-02T01:49:56.317Z,15.64
2018-07-02T01:51:05.481Z,15.59
2018-07-02T01:52:14.343Z,15.57
2018-07-02T01:53:23.210Z,15.68
2018-07-02T01:54:32.071Z,15.59
2018-07-02T01:55:40.929Z,15.65
2018-07-02T01:56:50.710Z,15.6
2018-07-02T01:57:59.669Z,15.62
2018-07-02T01:59:08.532Z,15.56
2018-07-02T02:00:17.392Z,15.53
2018-07-02T02:01:26.254Z,15.46
2018-07-02T02:02:35.114Z,15.49
2018-07-02T02:03:44.024Z,15.47
2018-07-02T02:04:52.887Z,15.44
2018-07-02T02:06:01.747Z,15.39
2018-07-02T02:07:10.609Z,15.46
2018-07-02T02:08:19.467Z,15.31
2018-07-02T02:09:28.378Z,15.32
2018-07-02T02:10:37.240Z,15.34
2018-07-02T02:11:46.102Z,15.35
2018-07-02T02:12:55.640Z,15.28
2018-07-02T02:14:04.501Z,15.28
2018-07-02T02:15:14.419Z,15.28
2018-07-02T02:16:23.584Z,15.29
2018-07-02T02:17:32.449Z,15.31
2018-07-02T02:18:41.615Z,15.25
2018-07-02T02:19:50.777Z,15.25
2018-07-02T02:20:59.640Z,15.29
2018-07-02T02:22:08.499Z,15.16
2018-07-02T02:23:17.359Z,15.23
2018-07-02T02:24:26.220Z,15.14
2018-07-02T02:25:35.082Z,15.09
2018-07-02T02:26:43.989Z,15.09
2018-07-02T02:27:53.144Z,15.11
2018-07-02T02:29:02.004Z,15.03
2018-07-02T02:30:10.865Z,15.01
2018-07-02T02:31:20.048Z,14.94
2018-07-02T02:32:29.008Z,14.89
2018-07-02T02:33:38.164Z,14.84
2018-07-02T02:34:47.336Z,14.8
2018-07-02T02:35:56.499Z,14.84
2018-07-02T02:37:05.962Z,14.84
2018-07-02T02:38:15.196Z,14.78
2018-07-02T02:39:24.042Z,14.75
2018-07-02T02:40:33.493Z,14.72
2018-07-02T02:41:43.193Z,14.65
2018-07-02T02:42:52.345Z,14.62
2018-07-02T02:44:01.921Z,14.64
2018-07-02T02:45:11.118Z,14.78
2018-07-02T02:46:20.609Z,14.64
2018-07-02T02:47:29.464Z,14.73
2018-07-02T02:48:39.212Z,14.64
2018-07-02T02:49:48.533Z,14.65
2018-07-02T02:50:58.819Z,14.64
2018-07-02T02:52:07.685Z,14.55
2018-07-02T02:53:16.834Z,14.68
2018-07-02T02:54:25.694Z,14.57
2018-07-02T02:55:34.855Z,14.5
2018-07-02T02:56:44.008Z,14.54
2018-07-02T02:57:52.867Z,14.64
2018-07-02T02:59:01.727Z,14.6
2018-07-02T03:00:11.265Z,14.65
2018-07-02T03:01:20.472Z,14.55
2018-07-02T03:02:29.623Z,14.54
2018-07-02T03:03:38.491Z,14.46
2018-07-02T03:04:47.648Z,14.55
2018-07-02T03:05:56.799Z,14.52
2018-07-02T03:07:06.124Z,14.5
2018-07-02T03:08:15.983Z,14.51
2018-07-02T03:09:25.155Z,14.52
2018-07-02T03:10:35.487Z,14.51
2018-07-02T03:11:44.654Z,14.5
2018-07-02T03:12:53.565Z,14.42
2018-07-02T03:14:02.424Z,14.46
2018-07-02T03:15:11.283Z,14.47
2018-07-02T03:16:20.746Z,14.42
2018-07-02T03:17:29.910Z,14.5
2018-07-02T03:18:38.825Z,14.45
2018-07-02T03:19:47.682Z,14.5
2018-07-02T03:20:56.549Z,14.32
2018-07-02T03:22:05.707Z,14.36
2018-07-02T03:23:14.574Z,14.35
2018-07-02T03:24:23.545Z,14.27
2018-07-02T03:25:32.404Z,14.27
2018-07-02T03:26:42.684Z,14.25
2018-07-02T03:27:52.236Z,14.24
2018-07-02T03:29:01.103Z,14.22
2018-07-02T03:30:10.335Z,14.27
2018-07-02T03:31:19.497Z,14.24
2018-07-02T03:32:28.669Z,14.18
2018-07-02T03:33:37.530Z,14.24
2018-07-02T03:34:46.393Z,14.15
2018-07-02T03:35:55.403Z,14.18
2018-07-02T03:37:04.265Z,14.22
2018-07-02T03:38:13.123Z,14.22
2018-07-02T03:39:22.294Z,14.21
2018-07-02T03:40:31.158Z,14.22
2018-07-02T03:41:40.403Z,14.14
2018-07-02T03:42:50.032Z,14.22
2018-07-02T03:43:59.207Z,14.17
2018-07-02T03:45:08.069Z,14.22
2018-07-02T03:46:16.932Z,14.15
2018-07-02T03:47:26.202Z,14.17
2018-07-02T03:48:35.380Z,14.14
2018-07-02T03:49:44.539Z,14.12
2018-07-02T03:50:54.011Z,14.1
2018-07-02T03:52:04.212Z,14.14
2018-07-02T03:53:13.068Z,14.1
2018-07-02T03:54:21.932Z,14.04
2018-07-02T03:55:31.100Z,14.1
2018-07-02T03:56:39.960Z,14.2
2018-07-02T03:57:48.821Z,14.09
2018-07-02T03:58:57.836Z,14.1
2018-07-02T04:00:06.694Z,14.02
2018-07-02T04:01:15.585Z,14.07
2018-07-02T04:02:24.417Z,14.06
2018-07-02T04:03:33.571Z,14.1
2018-07-02T04:04:42.579Z,14.12
2018-07-02T04:05:51.739Z,14
2018-07-02T04:07:00.599Z,14.06
2018-07-02T04:08:09.773Z,14.1
2018-07-02T04:09:19.392Z,14.15
2018-07-02T04:10:28.348Z,14.21
2018-07-02T04:11:37.529Z,14.15
2018-07-02T04:12:46.389Z,14.1
2018-07-02T04:13:55.248Z,14.14
2018-07-02T04:15:04.108Z,14.09
2018-07-02T04:16:13.124Z,14.06
2018-07-02T04:17:21.981Z,14
2018-07-02T04:18:30.841Z,14.1
2018-07-02T04:19:39.699Z,14.21
2018-07-02T04:20:48.562Z,14.12
2018-07-02T04:21:57.855Z,14.09
2018-07-02T04:23:07.067Z,14.24
2018-07-02T04:24:15.926Z,14.21
2018-07-02T04:25:25.095Z,14.17
2018-07-02T04:26:33.958Z,14.18
2018-07-02T04:27:42.813Z,14.12
2018-07-02T04:28:51.673Z,14.1
2018-07-02T04:30:00.531Z,14.18
2018-07-02T04:31:09.393Z,14.18
2018-07-02T04:32:18.253Z,14.18
2018-07-02T04:33:27.163Z,14.2
2018-07-02T04:34:36.028Z,14.18
2018-07-02T04:35:45.172Z,14.15
2018-07-02T04:36:54.033Z,14.21
2018-07-02T04:38:02.893Z,14.25
2018-07-02T04:39:11.904Z,14.29
2018-07-02T04:40:20.765Z,14.32
2018-07-02T04:41:30.245Z,14.24
2018-07-02T04:42:39.107Z,14.28
2018-07-02T04:43:47.968Z,14.29
2018-07-02T04:44:57.277Z,14.4
2018-07-02T04:46:06.870Z,14.33
2018-07-02T04:47:15.731Z,14.37
2018-07-02T04:48:25.134Z,14.46
2018-07-02T04:49:33.451Z,14.52
2018-07-02T04:50:42.364Z,14.5
2018-07-02T04:51:51.222Z,14.45
2018-07-02T04:53:00.085Z,14.45
2018-07-02T04:54:08.943Z,14.54
2018-07-02T04:55:17.813Z,14.57
2018-07-02T04:56:27.662Z,14.58
2018-07-02T04:57:36.575Z,14.5
2018-07-02T04:58:45.434Z,14.45
2018-07-02T04:59:55.114Z,14.6
2018-07-02T05:01:03.982Z,14.54
2018-07-02T05:02:13.465Z,14.51
2018-07-02T05:03:22.325Z,14.55
2018-07-02T05:04:31.184Z,14.54
2018-07-02T05:05:40.317Z,14.57
2018-07-02T05:06:49.178Z,14.57
2018-07-02T05:07:58.469Z,14.54
2018-07-02T05:09:07.330Z,14.64
2018-07-02T05:10:16.191Z,14.65
2018-07-02T05:11:25.055Z,14.51
2018-07-02T05:12:33.912Z,14.65
2018-07-02T05:13:42.772Z,14.65
2018-07-02T05:14:51.631Z,14.7
2018-07-02T05:16:00.497Z,14.61
2018-07-02T05:17:09.648Z,14.7
2018-07-02T05:18:18.784Z,14.73
2018-07-02T05:19:27.935Z,14.78
2018-07-02T05:20:36.800Z,14.77
2018-07-02T05:21:45.982Z,14.77
2018-07-02T05:22:54.844Z,14.77
2018-07-02T05:24:03.706Z,14.86
2018-07-02T05:25:12.841Z,14.89
2018-07-02T05:26:21.702Z,14.94
2018-07-02T05:27:30.840Z,14.96
2018-07-02T05:28:39.702Z,14.95
2018-07-02T05:29:48.570Z,15.03
2018-07-02T05:30:57.702Z,15.07
2018-07-02T05:32:06.580Z,15.07
2018-07-02T05:33:15.774Z,15.09
2018-07-02T05:34:24.677Z,15.13
2018-07-02T05:35:33.617Z,15.09
2018-07-02T05:36:42.605Z,15.13
2018-07-02T05:37:51.531Z,15.19
2018-07-02T05:39:00.915Z,15.25
2018-07-02T05:40:09.800Z,15.31
2018-07-02T05:41:18.947Z,15.27
2018-07-02T05:42:27.810Z,15.32
2018-07-02T05:43:36.769Z,15.35
2018-07-02T05:44:45.650Z,15.39
2018-07-02T05:45:54.508Z,15.43
2018-07-02T05:47:10.539Z,15.36
2018-07-02T05:48:22.668Z,15.43
2018-07-02T05:49:43.632Z,15.51
2018-07-02T05:51:02.294Z,15.53
2018-07-02T05:52:14.397Z,15.5
2018-07-02T05:53:26.348Z,15.53
2018-07-02T05:54:40.533Z,15.53
2018-07-02T05:55:55.068Z,15.54
2018-07-02T05:57:17.215Z,15.65
2018-07-02T05:58:33.834Z,15.65
2018-07-02T05:59:50.279Z,15.68
2018-07-02T06:01:06.579Z,15.78
2018-07-02T06:02:16.004Z,15.69
2018-07-02T06:03:25.171Z,15.74
2018-07-02T06:04:34.724Z,15.76
2018-07-02T06:05:43.868Z,15.84
2018-07-02T06:06:53.049Z,15.87
2018-07-02T06:08:02.011Z,15.83
2018-07-02T06:09:11.404Z,15.89
2018-07-02T06:10:21.395Z,15.97
2018-07-02T06:11:30.459Z,15.93
2018-07-02T06:12:39.754Z,16.01
2018-07-02T06:13:48.619Z,15.92
2018-07-02T06:14:57.481Z,15.93
2018-07-02T06:16:06.344Z,15.93
2018-07-02T06:17:15.256Z,16.21
2018-07-02T06:18:24.396Z,16.25
2018-07-02T06:19:33.260Z,16.33
2018-07-02T06:20:42.123Z,16.31
2018-07-02T06:21:51.268Z,16.28
2018-07-02T06:23:00.230Z,16.33
2018-07-02T06:24:09.090Z,16.38
2018-07-02T06:25:18.227Z,16.41
2018-07-02T06:26:27.088Z,16.46
2018-07-02T06:27:36.225Z,16.49
2018-07-02T06:28:45.236Z,16.52
2018-07-02T06:29:54.668Z,16.5
2018-07-02T06:31:03.536Z,16.61
2018-07-02T06:32:12.398Z,16.64
2018-07-02T06:33:21.285Z,16.5
2018-07-02T06:34:30.345Z,16.68
2018-07-02T06:35:39.484Z,16.73
2018-07-02T06:36:48.348Z,16.79
2018-07-02T06:37:57.488Z,16.85
2018-07-02T06:39:06.355Z,16.88
2018-07-02T06:40:15.418Z,16.88
2018-07-02T06:41:24.279Z,16.88
2018-07-02T06:42:33.143Z,16.93
2018-07-02T06:43:42.284Z,16.93
2018-07-02T06:44:51.146Z,16.97
2018-07-02T06:46:00.282Z,16.89
2018-07-02T06:47:09.427Z,17.07
2018-07-02T06:48:18.293Z,17.01
2018-07-02T06:49:27.154Z,17.03
2018-07-02T06:50:36.017Z,17.01
2018-07-02T06:51:45.703Z,17.21
2018-07-02T06:52:54.753Z,17.21
2018-07-02T06:54:03.627Z,17.18
2018-07-02T06:55:12.772Z,17.22
2018-07-02T06:56:21.643Z,17.19
2018-07-02T06:57:30.656Z,17.26
2018-07-02T06:58:39.566Z,17.34
2018-07-02T06:59:49.072Z,17.33
2018-07-02T07:00:58.210Z,17.38
2018-07-02T07:02:07.073Z,17.4
2018-07-02T07:03:16.037Z,17.43
2018-07-02T07:04:24.901Z,17.55
2018-07-02T07:05:33.765Z,17.55
2018-07-02T07:06:42.629Z,17.54
2018-07-02T07:07:51.490Z,17.56
2018-07-02T07:09:00.452Z,17.54
2018-07-02T07:10:09.317Z,17.48
2018-07-02T07:11:18.182Z,17.63
2018-07-02T07:12:27.362Z,17.54
2018-07-02T07:13:36.226Z,17.49
2018-07-02T07:14:45.341Z,17.7
2018-07-02T07:15:54.209Z,17.71
2018-07-02T07:17:03.358Z,17.75
2018-07-02T07:18:12.210Z,17.81
2018-07-02T07:19:21.073Z,17.81
2018-07-02T07:20:30.462Z,17.92
2018-07-02T07:21:39.329Z,17.9
2018-07-02T07:22:48.480Z,17.84
2018-07-02T07:23:57.343Z,17.97
2018-07-02T07:25:06.207Z,17.96
2018-07-02T07:26:15.447Z,18
2018-07-02T07:27:24.313Z,18.08
2018-07-02T07:28:33.485Z,18.07
2018-07-02T07:29:42.349Z,18.12
2018-07-02T07:30:51.211Z,18.1
2018-07-02T07:32:00.175Z,18.2
2018-07-02T07:33:09.039Z,18.15
2018-07-02T07:34:17.903Z,18.26
2018-07-02T07:35:26.765Z,18.3
2018-07-02T07:36:35.628Z,18.26
2018-07-02T07:37:44.917Z,18.32
2018-07-02T07:38:54.058Z,18.29
2018-07-02T07:40:03.199Z,18.42
2018-07-02T07:41:12.064Z,18.5
2018-07-02T07:42:20.927Z,18.44
2018-07-02T07:43:29.838Z,18.57
2018-07-02T07:44:38.714Z,18.66
2018-07-02T07:45:47.896Z,18.62
2018-07-02T07:46:57.036Z,18.7
2018-07-02T07:48:05.900Z,18.76
2018-07-02T07:49:14.870Z,18.75
2018-07-02T07:50:23.732Z,18.75
2018-07-02T07:51:32.616Z,18.84
2018-07-02T07:52:41.479Z,18.76
2018-07-02T07:53:50.340Z,18.82
2018-07-02T07:54:59.528Z,18.87
2018-07-02T07:56:08.393Z,18.84
2018-07-02T07:57:17.536Z,18.87
2018-07-02T07:58:26.954Z,18.88
2018-07-02T07:59:35.840Z,19
2018-07-02T08:00:45.407Z,19.11
2018-07-02T08:01:54.268Z,19.06
2018-07-02T08:03:03.704Z,19.08
2018-07-02T08:04:12.854Z,19.16
2018-07-02T08:05:22.005Z,19.23
2018-07-02T08:06:31.333Z,19.29
2018-07-02T08:07:40.197Z,19.36
2018-07-02T08:08:49.062Z,19.37
2018-07-02T08:09:57.939Z,19.43
2018-07-02T08:11:07.156Z,19.43
2018-07-02T08:12:16.116Z,19.43
2018-07-02T08:13:25.383Z,19.48
2018-07-02T08:14:34.246Z,19.55
2018-07-02T08:15:43.121Z,19.59
2018-07-02T08:16:52.318Z,19.59
2018-07-02T08:18:01.953Z,19.66
2018-07-02T08:19:10.977Z,19.77
2018-07-02T08:20:19.827Z,19.83
2018-07-02T08:21:28.692Z,19.8
2018-07-02T08:22:37.556Z,19.8
2018-07-02T08:23:47.229Z,19.86
2018-07-02T08:24:56.097Z,19.86
2018-07-02T08:26:04.956Z,19.95
2018-07-02T08:27:13.831Z,20.01
2018-07-02T08:28:22.692Z,19.96
2018-07-02T08:29:31.885Z,20.1
2018-07-02T08:30:40.750Z,20.01
2018-07-02T08:31:49.901Z,20.1
2018-07-02T08:32:58.828Z,20.1
2018-07-02T08:34:08.450Z,20.11
2018-07-02T08:35:17.745Z,20.08
2018-07-02T08:36:26.887Z,20.05
2018-07-02T08:37:35.804Z,20.05
2018-07-02T08:38:44.946Z,20.16
2018-07-02T08:39:53.810Z,20.21
2018-07-02T08:41:02.927Z,20.29
2018-07-02T08:42:12.067Z,20.26
2018-07-02T08:43:21.234Z,20.35
2018-07-02T08:44:30.111Z,20.33
2018-07-02T08:45:39.022Z,20.43
2018-07-02T08:46:47.981Z,20.36
2018-07-02T08:47:57.243Z,20.38
2018-07-02T08:49:06.125Z,20.36
2018-07-02T08:50:15.080Z,20.64
2018-07-02T08:51:23.947Z,20.55
2018-07-02T08:52:32.864Z,20.67
2018-07-02T08:53:42.008Z,20.61
2018-07-02T08:54:50.871Z,20.59
2018-07-02T08:55:59.735Z,20.7
2018-07-02T08:57:08.601Z,20.58
2018-07-02T08:58:17.949Z,20.77
2018-07-02T08:59:26.769Z,20.88
2018-07-02T09:00:35.919Z,20.79
2018-07-02T09:01:45.066Z,20.95
2018-07-02T09:02:54.486Z,21.04
2018-07-02T09:04:03.704Z,21.06
2018-07-02T09:05:12.566Z,20.98
2018-07-02T09:06:21.709Z,20.99
2018-07-02T09:07:30.575Z,20.92
2018-07-02T09:08:39.992Z,20.97
2018-07-02T09:09:49.005Z,20.97
2018-07-02T09:10:57.875Z,21.06
2018-07-02T09:12:06.747Z,21.1
2018-07-02T09:13:15.612Z,21.09
2018-07-02T09:14:24.474Z,21.17
2018-07-02T09:15:33.696Z,21.25
2018-07-02T09:16:42.841Z,21.17
2018-07-02T09:17:51.704Z,21.25
2018-07-02T09:19:00.845Z,21.34
2018-07-02T09:20:09.713Z,21.42
2018-07-02T09:21:18.747Z,21.37
2018-07-02T09:22:27.816Z,21.47
2018-07-02T09:23:36.684Z,21.59
2018-07-02T09:24:45.836Z,21.49
2018-07-02T09:25:54.700Z,21.61
2018-07-02T09:27:03.937Z,21.62
2018-07-02T09:28:13.458Z,21.65
2018-07-02T09:29:22.321Z,21.67
2018-07-02T09:30:31.184Z,21.8
2018-07-02T09:31:40.052Z,21.83
2018-07-02T09:32:48.918Z,21.83
2018-07-02T09:33:58.069Z,21.75
2018-07-02T09:35:07.215Z,21.69
2018-07-02T09:36:16.363Z,21.74
2018-07-02T09:37:25.229Z,21.83
2018-07-02T09:38:34.194Z,21.82
2018-07-02T09:39:43.060Z,21.88
2018-07-02T09:40:52.478Z,21.9
2018-07-02T09:42:01.341Z,21.96
2018-07-02T09:43:10.218Z,22.07
2018-07-02T09:44:19.362Z,22.03
2018-07-02T09:45:28.508Z,22.06
2018-07-02T09:46:37.658Z,22.03
2018-07-02T09:47:46.804Z,22.24
2018-07-02T09:48:55.671Z,22.14
2018-07-02T09:50:04.815Z,22.22
2018-07-02T09:51:13.955Z,22.31
2018-07-02T09:52:22.818Z,22.28
2018-07-02T09:53:31.681Z,22.33
2018-07-02T09:54:40.547Z,22.47
2018-07-02T09:55:49.420Z,22.46
2018-07-02T09:56:58.289Z,22.42
2018-07-02T09:58:07.152Z,22.37
2018-07-02T09:59:16.019Z,22.49
2018-07-02T10:00:25.167Z,22.62
2018-07-02T10:01:34.368Z,22.67
2018-07-02T10:02:43.238Z,22.57
2018-07-02T10:03:52.104Z,22.83
2018-07-02T10:05:00.967Z,22.85
2018-07-02T10:06:09.834Z,22.77
2018-07-02T10:07:18.723Z,22.77
2018-07-02T10:08:27.591Z,22.75
2018-07-02T10:09:36.657Z,22.76
2018-07-02T10:10:45.524Z,22.76
2018-07-02T10:11:54.389Z,22.8
2018-07-02T10:13:03.535Z,22.92
2018-07-02T10:14:12.401Z,23.02
2018-07-02T10:15:21.416Z,23.1
2018-07-02T10:16:30.284Z,22.97
2018-07-02T10:17:39.271Z,22.98
2018-07-02T10:18:48.204Z,23.1
2018-07-02T10:19:57.376Z,23.04
2018-07-02T10:21:06.943Z,23.01
2018-07-02T10:22:16.008Z,23.05
2018-07-02T10:23:24.888Z,23.16
2018-07-02T10:24:33.740Z,23.09
2018-07-02T10:25:42.880Z,23.23
2018-07-02T10:26:51.995Z,23.31
2018-07-02T10:28:00.870Z,23.22
2018-07-02T10:29:09.795Z,23.16
2018-07-02T10:30:18.642Z,23.38
2018-07-02T10:31:27.627Z,23.47
2018-07-02T10:32:37.006Z,23.42
2018-07-02T10:33:45.869Z,23.33
2018-07-02T10:34:55.202Z,23.33
2018-07-02T10:36:04.687Z,23.33
2018-07-02T10:37:13.553Z,23.51
2018-07-02T10:38:22.621Z,23.4
2018-07-02T10:39:31.488Z,23.36
2018-07-02T10:40:40.630Z,23.38
2018-07-02T10:41:49.498Z,23.5
2018-07-02T10:42:58.643Z,23.57
2018-07-02T10:44:07.858Z,23.73
2018-07-02T10:45:16.729Z,23.73
2018-07-02T10:46:25.600Z,23.78
2018-07-02T10:47:34.512Z,23.83
2018-07-02T10:48:43.376Z,23.75
2018-07-02T10:49:52.492Z,23.79
2018-07-02T10:51:01.356Z,23.63
2018-07-02T10:52:10.225Z,23.57
2018-07-02T10:53:19.367Z,23.7
2018-07-02T10:54:28.238Z,23.66
2018-07-02T10:55:37.950Z,23.63
2018-07-02T10:56:47.168Z,23.7
2018-07-02T10:57:56.076Z,23.73
2018-07-02T10:59:04.941Z,23.75
2018-07-02T11:00:13.813Z,23.93
2018-07-02T11:01:23.093Z,23.95
2018-07-02T11:02:32.287Z,23.97
2018-07-02T11:03:41.205Z,24.16
2018-07-02T11:04:50.073Z,24.18
2018-07-02T11:05:58.941Z,24.32
2018-07-02T11:07:08.160Z,24.5
2018-07-02T11:08:17.299Z,24.47
2018-07-02T11:09:26.443Z,24.43
2018-07-02T11:10:35.308Z,24.39
2018-07-02T11:11:44.173Z,24.4
2018-07-02T11:12:53.099Z,24.45
2018-07-02T11:14:02.350Z,24.55
2018-07-02T11:15:11.215Z,24.57
2018-07-02T11:16:20.083Z,24.67
2018-07-02T11:17:28.944Z,24.69
2018-07-02T11:18:38.238Z,24.78
2018-07-02T11:19:47.101Z,24.76
2018-07-02T11:20:55.972Z,24.77
2018-07-02T11:22:05.107Z,24.77
2018-07-02T11:23:14.006Z,24.83
2018-07-02T11:24:24.091Z,24.83
2018-07-02T11:25:33.165Z,24.88
2018-07-02T11:26:42.031Z,24.73
2018-07-02T11:27:50.903Z,24.77
2018-07-02T11:28:59.771Z,24.77
2018-07-02T11:30:08.874Z,24.78
2018-07-02T11:31:17.871Z,24.8
2018-07-02T11:32:27.012Z,24.81
2018-07-02T11:33:35.878Z,24.9
2018-07-02T11:34:44.744Z,25.05
2018-07-02T11:35:53.660Z,25
2018-07-02T11:37:02.575Z,25.09
2018-07-02T11:38:11.399Z,25.14
2018-07-02T11:39:20.264Z,25.21
2018-07-02T11:40:29.132Z,25.35
2018-07-02T11:41:38.105Z,25.45
2018-07-02T11:42:46.965Z,25.54
2018-07-02T11:43:55.828Z,25.55
2018-07-02T11:45:04.971Z,25.7
2018-07-02T11:46:13.835Z,25.77
2018-07-02T11:47:22.804Z,25.83
2018-07-02T11:48:31.945Z,25.77
2018-07-02T11:49:40.861Z,25.82
2018-07-02T11:50:49.693Z,25.91
2018-07-02T11:51:58.562Z,26.06
2018-07-02T11:53:07.477Z,26.13
2018-07-02T11:54:16.344Z,26.02
2018-07-02T11:55:25.212Z,26.09
2018-07-02T11:56:34.082Z,26.15
2018-07-02T11:57:42.947Z,26.25
2018-07-02T11:58:52.068Z,26.35
2018-07-02T12:00:01.214Z,26.36
2018-07-02T12:01:10.081Z,26.47
2018-07-02T12:02:18.948Z,26.48
2018-07-02T12:03:27.817Z,26.6
2018-07-02T12:04:36.788Z,26.84
2018-07-02T12:05:45.661Z,26.75
2018-07-02T12:06:54.804Z,26.89
2018-07-02T12:08:03.673Z,26.92
2018-07-02T12:09:12.544Z,27.06
2018-07-02T12:10:21.415Z,27.09
2018-07-02T12:11:30.285Z,27.12
2018-07-02T12:12:39.155Z,26.99
2018-07-02T12:13:48.028Z,27.1
2018-07-02T12:14:57.182Z,27.22
2018-07-02T12:16:06.411Z,27.4
2018-07-02T12:17:15.285Z,27.41
2018-07-02T12:18:24.161Z,27.62
2018-07-02T12:19:33.448Z,27.74
2018-07-02T12:20:42.550Z,27.49
2018-07-02T12:21:51.952Z,27.63
2018-07-02T12:23:00.830Z,27.75
2018-07-02T12:24:09.980Z,27.88
2018-07-02T12:25:18.856Z,27.81
2018-07-02T12:26:28.006Z,27.88
2018-07-02T12:27:37.155Z,28.03
2018-07-02T12:28:46.028Z,28.06
2018-07-02T12:29:54.956Z,28.18
2018-07-02T12:31:03.832Z,28.25
2018-07-02T12:32:12.985Z,28.21
2018-07-02T12:33:22.193Z,28.37
2018-07-02T12:34:31.303Z,28.19
2018-07-02T12:35:40.459Z,28.07
2018-07-02T12:36:49.615Z,28
2018-07-02T12:37:58.777Z,28.22
2018-07-02T12:39:07.700Z,28.25
2018-07-02T12:40:16.858Z,28.34
2018-07-02T12:41:25.735Z,28.43
2018-07-02T12:42:34.618Z,28.52
2018-07-02T12:43:43.771Z,28.48
2018-07-02T12:44:52.799Z,28.46
2018-07-02T12:46:01.678Z,28.68
2018-07-02T12:47:10.833Z,28.78
2018-07-02T12:48:19.713Z,28.44
2018-07-02T12:49:28.868Z,29.05
2018-07-02T12:50:37.895Z,29.48
2018-07-02T12:51:46.784Z,29.33
2018-07-02T12:52:55.664Z,29.57
2018-07-02T12:54:04.605Z,29.89
2018-07-02T12:55:13.865Z,30.2
2018-07-02T12:56:23.024Z,29.92
2018-07-02T12:57:32.187Z,30.24
2018-07-02T12:58:41.069Z,30.26
2018-07-02T12:59:50.271Z,30.45
2018-07-02T13:00:59.151Z,30.46
2018-07-02T13:02:08.282Z,30.75
2018-07-02T13:03:17.161Z,30.83
2018-07-02T13:04:26.044Z,30.88
2018-07-02T13:05:34.925Z,30.86
2018-07-02T13:06:43.804Z,30.84
2018-07-02T13:07:52.836Z,31.02
2018-07-02T13:09:01.719Z,30.89
2018-07-02T13:10:10.599Z,30.95
2018-07-02T13:11:19.756Z,31.13
2018-07-02T13:12:28.637Z,31.14
2018-07-02T13:13:38.526Z,30.75
2018-07-02T13:14:47.446Z,30.76
2018-07-02T13:15:56.605Z,30.54
2018-07-02T13:17:05.490Z,30.7
2018-07-02T13:18:14.936Z,31.01
2018-07-02T13:19:23.863Z,30.69
2018-07-02T13:20:33.056Z,30.7
2018-07-02T13:21:41.920Z,30.89
2018-07-02T13:22:50.797Z,31.07
2018-07-02T13:23:59.989Z,31.12
2018-07-02T13:25:09.220Z,30.82
2018-07-02T13:26:18.381Z,30.84
2018-07-02T13:27:27.541Z,31.16
2018-07-02T13:28:36.417Z,31.16
2018-07-02T13:29:45.306Z,31.01
2018-07-02T13:30:54.284Z,31.41
2018-07-02T13:32:03.164Z,31.1
2018-07-02T13:33:12.363Z,31.2
2018-07-02T13:34:21.355Z,31.28
2018-07-02T13:35:30.238Z,31.46
2018-07-02T13:36:39.500Z,31.56
2018-07-02T13:37:48.447Z,31.73
2018-07-02T13:38:57.424Z,31.65
2018-07-02T13:40:06.308Z,31.65
2018-07-02T13:41:15.471Z,31.66
2018-07-02T13:42:24.846Z,31.66
2018-07-02T13:43:34.115Z,31.78
2018-07-02T13:44:42.998Z,31.88
2018-07-02T13:45:51.971Z,31.85
2018-07-02T13:47:01.136Z,31.81
2018-07-02T13:48:10.389Z,31.66
2018-07-02T13:49:19.273Z,31.68
2018-07-02T13:50:28.155Z,31.8
2018-07-02T13:51:37.056Z,31.56
2018-07-02T13:52:45.937Z,31.5
2018-07-02T13:53:54.972Z,31.69
2018-07-02T13:55:04.131Z,32.08
2018-07-02T13:56:13.329Z,32.14
2018-07-02T13:57:22.211Z,32.21
2018-07-02T13:58:31.097Z,32.07
2018-07-02T13:59:40.406Z,32.03
2018-07-02T14:00:49.305Z,32.14
2018-07-02T14:01:58.465Z,31.89
2018-07-02T14:03:07.350Z,32.01
2018-07-02T14:04:16.516Z,32.18
2018-07-02T14:05:25.825Z,32.45
2018-07-02T14:06:34.707Z,32.28
2018-07-02T14:07:43.589Z,32.25
2018-07-02T14:08:52.475Z,32.22
2018-07-02T14:10:01.358Z,32.22
2018-07-02T14:11:10.794Z,32.21
2018-07-02T14:12:19.688Z,32.21
2018-07-02T14:13:28.573Z,32.47
2018-07-02T14:14:37.531Z,32.22
2018-07-02T14:15:46.340Z,32.01
2018-07-02T14:16:55.229Z,32.26
2018-07-02T14:18:04.107Z,32.41
2018-07-02T14:19:13.277Z,32.47
2018-07-02T14:20:22.162Z,32.63
2018-07-02T14:21:31.040Z,32.67
2018-07-02T14:22:40.029Z,32.72
2018-07-02T14:23:49.464Z,32.92
2018-07-02T14:24:58.347Z,32.63
2018-07-02T14:26:07.231Z,32.81
2018-07-02T14:27:16.469Z,32.96
2018-07-02T14:28:25.351Z,33.04
2018-07-02T14:29:34.235Z,33.15
2018-07-02T14:30:43.119Z,33.37
2018-07-02T14:31:52.283Z,33.38
2018-07-02T14:33:01.730Z,33.49
2018-07-02T14:34:11.108Z,33.53
2018-07-02T14:35:19.999Z,33.38
2018-07-02T14:36:29.436Z,33.04
2018-07-02T14:37:38.868Z,33.18
2018-07-02T14:38:48.029Z,33.15
2018-07-02T14:39:57.065Z,33
2018-07-02T14:41:05.950Z,33.16
2018-07-02T14:42:14.834Z,33.22
2018-07-02T14:43:23.716Z,33.22
2018-07-02T14:44:32.880Z,33.32
2018-07-02T14:45:42.116Z,33.35
2018-07-02T14:46:50.996Z,33.57
2018-07-02T14:47:59.877Z,33.57
2018-07-02T14:49:09.054Z,33.44
2018-07-02T14:50:18.228Z,33.28
2018-07-02T14:51:27.656Z,33.31
2018-07-02T14:52:37.942Z,33.38
2018-07-02T14:53:46.835Z,33.38